sensor_id;sensor_type;location;lat;lon;timestamp;pressure;altitude;pressure_sealevel;temperature;humidity
48630;BME280;34426;52.180;4.462;2023-05-21T00:02:06;102069.75;;;13.52;79.32
48630;BME280;34426;52.180;4.462;2023-05-21T00:04:33;102061.75;;;13.44;78.35
48630;BME280;34426;52.180;4.462;2023-05-21T00:07:01;102058.97;;;13.44;79.51
48630;BME280;34426;52.180;4.462;2023-05-21T00:09:28;102064.00;;;13.42;79.46
48630;BME280;34426;52.180;4.462;2023-05-21T00:11:55;102056.16;;;13.44;79.60
48630;BME280;34426;52.180;4.462;2023-05-21T00:14:25;102058.97;;;13.44;79.48
48630;BME280;34426;52.180;4.462;2023-05-21T00:16:52;102060.88;;;13.38;79.59
48630;BME280;34426;52.180;4.462;2023-05-21T00:19:19;102057.97;;;13.33;79.87
48630;BME280;34426;52.180;4.462;2023-05-21T00:21:47;102062.41;;;13.29;79.83
48630;BME280;34426;52.180;4.462;2023-05-21T00:24:14;102064.63;;;13.27;80.37
48630;BME280;34426;52.180;4.462;2023-05-21T00:26:41;102057.47;;;13.19;79.79
48630;BME280;34426;52.180;4.462;2023-05-21T00:29:09;102055.50;;;13.20;80.18
48630;BME280;34426;52.180;4.462;2023-05-21T00:31:37;102047.94;;;13.20;80.35
48630;BME280;34426;52.180;4.462;2023-05-21T00:34:05;102065.34;;;13.06;80.15
48630;BME280;34426;52.180;4.462;2023-05-21T00:36:32;102052.41;;;13.05;81.06
48630;BME280;34426;52.180;4.462;2023-05-21T00:38:59;102050.66;;;12.98;81.19
48630;BME280;34426;52.180;4.462;2023-05-21T00:41:27;102049.44;;;12.94;81.41
48630;BME280;34426;52.180;4.462;2023-05-21T00:43:54;102042.47;;;12.97;81.04
48630;BME280;34426;52.180;4.462;2023-05-21T00:46:22;102045.19;;;12.92;81.07
48630;BME280;34426;52.180;4.462;2023-05-21T00:48:52;102040.69;;;12.91;81.53
48630;BME280;34426;52.180;4.462;2023-05-21T00:51:19;102040.09;;;12.89;81.35
48630;BME280;34426;52.180;4.462;2023-05-21T00:53:48;102042.19;;;12.82;81.78
48630;BME280;34426;52.180;4.462;2023-05-21T00:56:15;102041.09;;;12.83;81.47
48630;BME280;34426;52.180;4.462;2023-05-21T00:58:43;102043.81;;;12.78;81.53
48630;BME280;34426;52.180;4.462;2023-05-21T01:01:11;102042.63;;;12.74;82.15
48630;BME280;34426;52.180;4.462;2023-05-21T01:03:39;102039.72;;;12.69;82.02
48630;BME280;34426;52.180;4.462;2023-05-21T01:06:09;102036.31;;;12.66;81.94
48630;BME280;34426;52.180;4.462;2023-05-21T01:08:40;102036.31;;;12.66;82.42
48630;BME280;34426;52.180;4.462;2023-05-21T01:11:09;102034.84;;;12.64;82.55
48630;BME280;34426;52.180;4.462;2023-05-21T01:13:38;102032.19;;;12.57;82.79
48630;BME280;34426;52.180;4.462;2023-05-21T01:16:07;102025.72;;;12.57;82.78
48630;BME280;34426;52.180;4.462;2023-05-21T01:18:35;102034.75;;;12.59;82.80
48630;BME280;34426;52.180;4.462;2023-05-21T01:21:03;102036.28;;;12.50;83.26
48630;BME280;34426;52.180;4.462;2023-05-21T01:23:33;102019.09;;;12.46;83.37
48630;BME280;34426;52.180;4.462;2023-05-21T01:25:59;102020.31;;;12.50;83.64
48630;BME280;34426;52.180;4.462;2023-05-21T01:28:27;102025.91;;;12.50;83.83
48630;BME280;34426;52.180;4.462;2023-05-21T01:30:54;102019.22;;;12.51;84.22
48630;BME280;34426;52.180;4.462;2023-05-21T01:33:40;102020.97;;;12.57;83.92
48630;BME280;34426;52.180;4.462;2023-05-21T01:36:15;102024.22;;;12.66;83.73
48630;BME280;34426;52.180;4.462;2023-05-21T01:38:51;102022.19;;;12.78;83.65
48630;BME280;34426;52.180;4.462;2023-05-21T01:41:22;102025.28;;;12.93;83.56
48630;BME280;34426;52.180;4.462;2023-05-21T01:43:52;102025.09;;;13.00;83.15
48630;BME280;34426;52.180;4.462;2023-05-21T01:46:23;102023.53;;;13.09;82.92
48630;BME280;34426;52.180;4.462;2023-05-21T01:48:54;102021.34;;;13.11;82.64
48630;BME280;34426;52.180;4.462;2023-05-21T01:51:23;102027.41;;;13.20;83.08
48630;BME280;34426;52.180;4.462;2023-05-21T01:53:53;102017.09;;;13.25;83.07
48630;BME280;34426;52.180;4.462;2023-05-21T01:56:20;102023.91;;;13.29;82.61
48630;BME280;34426;52.180;4.462;2023-05-21T01:58:47;102022.88;;;13.36;82.59
48630;BME280;34426;52.180;4.462;2023-05-21T02:01:15;102016.75;;;13.39;82.68
48630;BME280;34426;52.180;4.462;2023-05-21T02:03:42;102015.69;;;13.45;82.66
48630;BME280;34426;52.180;4.462;2023-05-21T02:06:10;102022.50;;;13.49;82.49
48630;BME280;34426;52.180;4.462;2023-05-21T02:08:37;102025.91;;;13.51;82.23
48630;BME280;34426;52.180;4.462;2023-05-21T02:11:06;102027.09;;;13.55;82.57
48630;BME280;34426;52.180;4.462;2023-05-21T02:13:36;102021.78;;;13.58;82.29
48630;BME280;34426;52.180;4.462;2023-05-21T02:16:03;102024.34;;;13.60;82.93
48630;BME280;34426;52.180;4.462;2023-05-21T02:18:31;102017.03;;;13.59;82.56
48630;BME280;34426;52.180;4.462;2023-05-21T02:20:58;102016.00;;;13.65;82.71
48630;BME280;34426;52.180;4.462;2023-05-21T02:23:25;102031.16;;;13.64;82.91
48630;BME280;34426;52.180;4.462;2023-05-21T02:25:52;102019.38;;;13.67;83.12
48630;BME280;34426;52.180;4.462;2023-05-21T02:28:21;102023.31;;;13.66;83.00
48630;BME280;34426;52.180;4.462;2023-05-21T02:30:49;102014.34;;;13.69;83.44
48630;BME280;34426;52.180;4.462;2023-05-21T02:33:16;102014.09;;;13.71;83.57
48630;BME280;34426;52.180;4.462;2023-05-21T02:35:43;102020.66;;;13.76;82.83
48630;BME280;34426;52.180;4.462;2023-05-21T02:38:10;102028.56;;;13.79;82.99
48630;BME280;34426;52.180;4.462;2023-05-21T02:40:38;102024.91;;;13.79;83.37
48630;BME280;34426;52.180;4.462;2023-05-21T02:43:05;102020.38;;;13.78;83.00
48630;BME280;34426;52.180;4.462;2023-05-21T02:45:35;102019.63;;;13.87;83.27
48630;BME280;34426;52.180;4.462;2023-05-21T02:48:02;102024.41;;;13.87;82.70
48630;BME280;34426;52.180;4.462;2023-05-21T02:50:29;102020.13;;;13.79;82.55
48630;BME280;34426;52.180;4.462;2023-05-21T02:52:57;102020.50;;;13.88;83.06
48630;BME280;34426;52.180;4.462;2023-05-21T02:55:24;102015.19;;;13.91;82.58
48630;BME280;34426;52.180;4.462;2023-05-21T02:57:52;102023.38;;;13.93;82.63
48630;BME280;34426;52.180;4.462;2023-05-21T03:00:19;102016.03;;;13.92;83.09
48630;BME280;34426;52.180;4.462;2023-05-21T03:02:48;102012.72;;;13.95;82.41
48630;BME280;34426;52.180;4.462;2023-05-21T03:05:16;102012.38;;;13.91;83.00
48630;BME280;34426;52.180;4.462;2023-05-21T03:07:43;102018.59;;;13.93;82.56
48630;BME280;34426;52.180;4.462;2023-05-21T03:10:11;102014.41;;;13.96;82.72
48630;BME280;34426;52.180;4.462;2023-05-21T03:12:38;102012.38;;;13.91;82.55
48630;BME280;34426;52.180;4.462;2023-05-21T03:15:06;102005.13;;;13.95;82.78
48630;BME280;34426;52.180;4.462;2023-05-21T03:17:33;102002.91;;;13.97;82.58
48630;BME280;34426;52.180;4.462;2023-05-21T03:20:02;102003.41;;;13.94;82.79
48630;BME280;34426;52.180;4.462;2023-05-21T03:22:29;102001.78;;;13.98;82.19
48630;BME280;34426;52.180;4.462;2023-05-21T03:24:57;102008.53;;;13.97;82.16
48630;BME280;34426;52.180;4.462;2023-05-21T03:27:24;102003.94;;;13.91;82.30
48630;BME280;34426;52.180;4.462;2023-05-21T03:29:52;102004.78;;;13.92;82.79
48630;BME280;34426;52.180;4.462;2023-05-21T03:32:19;101997.00;;;13.99;82.25
48630;BME280;34426;52.180;4.462;2023-05-21T03:34:46;102001.84;;;14.04;82.05
48630;BME280;34426;52.180;4.462;2023-05-21T03:37:15;102003.28;;;14.06;81.79
48630;BME280;34426;52.180;4.462;2023-05-21T03:39:43;101996.28;;;14.09;82.17
48630;BME280;34426;52.180;4.462;2023-05-21T03:42:10;101997.41;;;14.08;81.70
48630;BME280;34426;52.180;4.462;2023-05-21T03:44:38;101997.41;;;14.08;81.71
48630;BME280;34426;52.180;4.462;2023-05-21T03:47:07;101996.22;;;14.04;81.45
48630;BME280;34426;52.180;4.462;2023-05-21T03:49:35;102003.56;;;14.05;82.44
48630;BME280;34426;52.180;4.462;2023-05-21T03:52:02;102000.47;;;14.06;81.75
48630;BME280;34426;52.180;4.462;2023-05-21T03:54:31;102000.69;;;13.99;81.90
48630;BME280;34426;52.180;4.462;2023-05-21T03:56:58;102000.16;;;14.03;81.84
48630;BME280;34426;52.180;4.462;2023-05-21T03:59:26;102003.56;;;14.05;82.23
48630;BME280;34426;52.180;4.462;2023-05-21T04:01:53;102003.22;;;14.01;81.72
48630;BME280;34426;52.180;4.462;2023-05-21T04:04:20;102010.03;;;14.05;81.98
48630;BME280;34426;52.180;4.462;2023-05-21T04:06:47;101999.31;;;14.02;82.27
48630;BME280;34426;52.180;4.462;2023-05-21T04:09:14;102010.03;;;14.05;81.62
48630;BME280;34426;52.180;4.462;2023-05-21T04:11:44;102008.66;;;14.08;81.81
48630;BME280;34426;52.180;4.462;2023-05-21T04:14:11;102009.50;;;14.08;81.59
48630;BME280;34426;52.180;4.462;2023-05-21T04:16:39;102003.34;;;14.11;81.88
48630;BME280;34426;52.180;4.462;2023-05-21T04:19:06;102002.19;;;14.07;81.92
48630;BME280;34426;52.180;4.462;2023-05-21T04:21:34;102006.44;;;14.10;82.07
48630;BME280;34426;52.180;4.462;2023-05-21T04:24:01;102011.47;;;14.08;81.25
48630;BME280;34426;52.180;4.462;2023-05-21T04:26:29;102005.31;;;14.11;81.80
48630;BME280;34426;52.180;4.462;2023-05-21T04:28:58;102010.34;;;14.09;81.64
48630;BME280;34426;52.180;4.462;2023-05-21T04:31:25;102008.13;;;14.11;81.73
48630;BME280;34426;52.180;4.462;2023-05-21T04:33:53;102009.63;;;14.18;81.41
48630;BME280;34426;52.180;4.462;2023-05-21T04:36:20;102003.34;;;14.11;81.64
48630;BME280;34426;52.180;4.462;2023-05-21T04:38:47;102002.50;;;14.11;80.77
48630;BME280;34426;52.180;4.462;2023-05-21T04:41:15;102009.31;;;14.15;81.23
48630;BME280;34426;52.180;4.462;2023-05-21T04:43:42;102004.53;;;14.15;81.50
48630;BME280;34426;52.180;4.462;2023-05-21T04:46:13;102005.38;;;14.16;81.37
48630;BME280;34426;52.180;4.462;2023-05-21T04:48:40;102002.56;;;14.16;81.64
48630;BME280;34426;52.180;4.462;2023-05-21T04:51:07;102011.47;;;14.08;81.07
48630;BME280;34426;52.180;4.462;2023-05-21T04:53:34;102014.09;;;14.14;81.43
48630;BME280;34426;52.180;4.462;2023-05-21T04:56:01;102017.53;;;14.21;81.39
48630;BME280;34426;52.180;4.462;2023-05-21T04:58:28;102015.53;;;14.17;81.60
48630;BME280;34426;52.180;4.462;2023-05-21T05:00:56;102013.34;;;14.24;80.89
48630;BME280;34426;52.180;4.462;2023-05-21T05:03:25;102015.31;;;14.23;80.90
48630;BME280;34426;52.180;4.462;2023-05-21T05:05:52;102004.91;;;14.24;80.87
48630;BME280;34426;52.180;4.462;2023-05-21T05:08:19;102010.03;;;14.32;80.95
48630;BME280;34426;52.180;4.462;2023-05-21T05:10:46;102011.22;;;14.36;80.38
48630;BME280;34426;52.180;4.462;2023-05-21T05:13:14;101999.44;;;14.39;80.52
48630;BME280;34426;52.180;4.462;2023-05-21T05:15:41;101999.09;;;14.36;80.46
48630;BME280;34426;52.180;4.462;2023-05-21T05:18:08;102000.63;;;14.43;79.77
48630;BME280;34426;52.180;4.462;2023-05-21T05:20:37;101992.78;;;14.45;80.35
48630;BME280;34426;52.180;4.462;2023-05-21T05:23:04;101987.78;;;14.52;79.80
48630;BME280;34426;52.180;4.462;2023-05-21T05:25:31;101995.16;;;14.58;79.75
48630;BME280;34426;52.180;4.462;2023-05-21T05:27:59;101992.41;;;14.63;79.79
48630;BME280;34426;52.180;4.462;2023-05-21T05:30:26;101985.97;;;14.73;78.76
48630;BME280;34426;52.180;4.462;2023-05-21T05:32:53;101994.78;;;14.82;78.84
48630;BME280;34426;52.180;4.462;2023-05-21T05:35:21;101986.69;;;14.90;78.43
48630;BME280;34426;52.180;4.462;2023-05-21T05:37:50;101981.16;;;15.01;78.54
48630;BME280;34426;52.180;4.462;2023-05-21T05:40:17;101971.31;;;15.03;78.35
48630;BME280;34426;52.180;4.462;2023-05-21T05:42:45;101971.94;;;15.10;78.09
48630;BME280;34426;52.180;4.462;2023-05-21T05:45:12;101979.25;;;15.16;77.55
48630;BME280;34426;52.180;4.462;2023-05-21T05:47:39;101979.31;;;15.21;77.34
48630;BME280;34426;52.180;4.462;2023-05-21T05:50:07;101973.69;;;15.26;77.15
48630;BME280;34426;52.180;4.462;2023-05-21T05:52:34;101978.84;;;15.35;76.96
48630;BME280;34426;52.180;4.462;2023-05-21T05:55:04;101975.81;;;15.46;77.02
48630;BME280;34426;52.180;4.462;2023-05-21T05:57:31;101970.97;;;15.42;76.58
48630;BME280;34426;52.180;4.462;2023-05-21T05:59:59;101964.28;;;15.53;75.90
48630;BME280;34426;52.180;4.462;2023-05-21T06:02:26;101964.84;;;15.50;75.11
48630;BME280;34426;52.180;4.462;2023-05-21T06:04:53;101976.19;;;15.60;75.04
48630;BME280;34426;52.180;4.462;2023-05-21T06:07:21;101972.84;;;15.68;75.28
48630;BME280;34426;52.180;4.462;2023-05-21T06:09:48;101974.03;;;15.82;74.82
48630;BME280;34426;52.180;4.462;2023-05-21T06:12:17;101975.16;;;15.81;75.18
48630;BME280;34426;52.180;4.462;2023-05-21T06:14:44;101974.56;;;15.74;75.85
48630;BME280;34426;52.180;4.462;2023-05-21T06:17:12;101969.53;;;15.86;75.25
48630;BME280;34426;52.180;4.462;2023-05-21T06:19:39;101969.56;;;15.96;74.57
48630;BME280;34426;52.180;4.462;2023-05-21T06:22:06;101972.38;;;15.91;73.50
48630;BME280;34426;52.180;4.462;2023-05-21T06:24:34;101978.59;;;15.93;73.35
48630;BME280;34426;52.180;4.462;2023-05-21T06:27:00;101973.22;;;15.92;73.08
48630;BME280;34426;52.180;4.462;2023-05-21T06:29:29;101978.63;;;15.99;73.23
48630;BME280;34426;52.180;4.462;2023-05-21T06:31:57;101974.94;;;15.93;72.94
48630;BME280;34426;52.180;4.462;2023-05-21T06:34:24;101983.13;;;15.94;73.51
48630;BME280;34426;52.180;4.462;2023-05-21T06:36:52;101988.75;;;15.94;73.90
48630;BME280;34426;52.180;4.462;2023-05-21T06:39:19;101985.97;;;16.00;73.97
48630;BME280;34426;52.180;4.462;2023-05-21T06:41:46;101980.59;;;16.03;73.49
48630;BME280;34426;52.180;4.462;2023-05-21T06:44:14;101981.44;;;16.04;73.29
48630;BME280;34426;52.180;4.462;2023-05-21T06:46:43;101983.41;;;16.03;73.84
48630;BME280;34426;52.180;4.462;2023-05-21T06:49:11;101990.47;;;15.95;73.81
48630;BME280;34426;52.180;4.462;2023-05-21T06:51:38;101986.75;;;15.90;73.98
48630;BME280;34426;52.180;4.462;2023-05-21T06:54:06;101985.94;;;15.94;73.20
48630;BME280;34426;52.180;4.462;2023-05-21T06:56:33;101987.94;;;15.99;72.45
48630;BME280;34426;52.180;4.462;2023-05-21T06:59:01;101985.41;;;16.08;72.31
48630;BME280;34426;52.180;4.462;2023-05-21T07:01:28;101983.19;;;16.20;71.75
48630;BME280;34426;52.180;4.462;2023-05-21T07:03:57;101987.72;;;16.31;72.12
48630;BME280;34426;52.180;4.462;2023-05-21T07:06:24;101991.16;;;16.43;71.93
48630;BME280;34426;52.180;4.462;2023-05-21T07:08:51;101992.84;;;16.54;71.88
48630;BME280;34426;52.180;4.462;2023-05-21T07:11:19;101990.03;;;16.59;71.97
48630;BME280;34426;52.180;4.462;2023-05-21T07:13:46;101998.84;;;16.73;71.51
48630;BME280;34426;52.180;4.462;2023-05-21T07:16:13;102004.22;;;16.75;70.51
48630;BME280;34426;52.180;4.462;2023-05-21T07:18:40;101991.78;;;16.81;70.44
48630;BME280;34426;52.180;4.462;2023-05-21T07:21:10;101994.63;;;16.86;70.13
48630;BME280;34426;52.180;4.462;2023-05-21T07:23:37;102005.34;;;16.89;69.72
48630;BME280;34426;52.180;4.462;2023-05-21T07:26:04;102001.38;;;16.90;69.80
48630;BME280;34426;52.180;4.462;2023-05-21T07:28:32;102005.88;;;16.91;69.56
48630;BME280;34426;52.180;4.462;2023-05-21T07:30:59;101994.63;;;16.86;69.29
48630;BME280;34426;52.180;4.462;2023-05-21T07:33:27;102003.66;;;16.88;68.90
48630;BME280;34426;52.180;4.462;2023-05-21T07:35:57;102013.81;;;16.69;69.70
48630;BME280;34426;52.180;4.462;2023-05-21T07:38:26;102011.28;;;16.72;70.01
48630;BME280;34426;52.180;4.462;2023-05-21T07:40:53;102003.09;;;16.86;69.24
48630;BME280;34426;52.180;4.462;2023-05-21T07:43:21;102008.13;;;16.63;69.81
48630;BME280;34426;52.180;4.462;2023-05-21T07:45:48;102001.38;;;16.80;69.75
48630;BME280;34426;52.180;4.462;2023-05-21T07:48:15;102003.38;;;16.84;69.66
48630;BME280;34426;52.180;4.462;2023-05-21T07:50:42;102001.94;;;17.07;69.23
48630;BME280;34426;52.180;4.462;2023-05-21T07:53:10;101989.50;;;17.08;69.31
48630;BME280;34426;52.180;4.462;2023-05-21T07:55:38;101990.63;;;17.07;68.90
48630;BME280;34426;52.180;4.462;2023-05-21T07:58:06;101996.00;;;17.24;68.71
48630;BME280;34426;52.180;4.462;2023-05-21T08:00:41;101998.53;;;17.25;67.72
48630;BME280;34426;52.180;4.462;2023-05-21T08:03:09;101993.47;;;17.12;68.40
48630;BME280;34426;52.180;4.462;2023-05-21T08:05:37;102008.72;;;17.11;68.20
48630;BME280;34426;52.180;4.462;2023-05-21T08:08:04;102005.34;;;17.14;68.43
48630;BME280;34426;52.180;4.462;2023-05-21T08:10:32;102004.75;;;17.33;67.80
48630;BME280;34426;52.180;4.462;2023-05-21T08:13:01;102004.19;;;17.25;68.95
48630;BME280;34426;52.180;4.462;2023-05-21T08:15:28;102004.16;;;17.36;68.52
48630;BME280;34426;52.180;4.462;2023-05-21T08:17:56;102000.47;;;17.45;68.35
48630;BME280;34426;52.180;4.462;2023-05-21T08:20:23;101993.94;;;17.60;67.15
48630;BME280;34426;52.180;4.462;2023-05-21T08:22:53;101992.75;;;17.76;66.63
48630;BME280;34426;52.180;4.462;2023-05-21T08:25:20;101998.97;;;17.78;66.72
48630;BME280;34426;52.180;4.462;2023-05-21T08:27:48;101992.19;;;17.79;66.87
48630;BME280;34426;52.180;4.462;2023-05-21T08:30:17;101997.75;;;18.00;67.03
48630;BME280;34426;52.180;4.462;2023-05-21T08:32:45;102004.28;;;18.00;65.47
48630;BME280;34426;52.180;4.462;2023-05-21T08:35:13;101999.41;;;18.11;64.79
48630;BME280;34426;52.180;4.462;2023-05-21T08:37:40;101998.41;;;18.36;64.40
48630;BME280;34426;52.180;4.462;2023-05-21T08:40:08;101999.25;;;18.36;65.01
48630;BME280;34426;52.180;4.462;2023-05-21T08:42:41;101998.97;;;18.38;63.86
48630;BME280;34426;52.180;4.462;2023-05-21T08:45:10;102003.41;;;18.54;63.05
48630;BME280;34426;52.180;4.462;2023-05-21T08:47:41;101992.88;;;18.59;63.13
48630;BME280;34426;52.180;4.462;2023-05-21T08:50:10;101998.53;;;18.65;62.28
48630;BME280;34426;52.180;4.462;2023-05-21T08:52:38;101994.88;;;18.59;62.17
48630;BME280;34426;52.180;4.462;2023-05-21T08:55:07;101999.00;;;18.77;62.32
48630;BME280;34426;52.180;4.462;2023-05-21T08:57:34;102002.28;;;18.94;62.10
48630;BME280;34426;52.180;4.462;2023-05-21T09:00:03;102007.19;;;18.83;62.30
48630;BME280;34426;52.180;4.462;2023-05-21T09:02:33;102000.25;;;19.00;62.01
48630;BME280;34426;52.180;4.462;2023-05-21T09:05:03;101993.06;;;19.07;61.86
48630;BME280;34426;52.180;4.462;2023-05-21T09:07:33;101985.00;;;19.19;61.21
48630;BME280;34426;52.180;4.462;2023-05-21T09:10:05;101993.19;;;19.26;60.42
48630;BME280;34426;52.180;4.462;2023-05-21T09:12:34;101986.25;;;19.08;59.72
48630;BME280;34426;52.180;4.462;2023-05-21T09:15:02;101974.56;;;19.15;61.32
48630;BME280;34426;52.180;4.462;2023-05-21T09:17:29;101964.22;;;19.29;60.91
48630;BME280;34426;52.180;4.462;2023-05-21T09:20:12;101968.94;;;19.39;60.83
48630;BME280;34426;52.180;4.462;2023-05-21T09:22:44;101970.25;;;19.75;60.52
48630;BME280;34426;52.180;4.462;2023-05-21T09:25:13;101976.78;;;20.18;57.96
48630;BME280;34426;52.180;4.462;2023-05-21T09:27:41;101968.38;;;20.08;58.19
48630;BME280;34426;52.180;4.462;2023-05-21T09:30:11;101971.47;;;20.12;57.63
48630;BME280;34426;52.180;4.462;2023-05-21T09:32:38;101966.44;;;20.04;56.39
48630;BME280;34426;52.180;4.462;2023-05-21T09:35:07;101958.06;;;19.93;57.93
48630;BME280;34426;52.180;4.462;2023-05-21T09:37:39;101961.28;;;20.30;57.44
48630;BME280;34426;52.180;4.462;2023-05-21T09:40:14;101960.41;;;20.10;57.92
48630;BME280;34426;52.180;4.462;2023-05-21T09:42:46;101956.88;;;20.37;57.42
48630;BME280;34426;52.180;4.462;2023-05-21T09:45:11;101957.78;;;20.14;57.32
48630;BME280;34426;52.180;4.462;2023-05-21T09:47:42;101960.56;;;20.19;56.87
48630;BME280;34426;52.180;4.462;2023-05-21T09:50:09;101952.25;;;20.04;56.55
48630;BME280;34426;52.180;4.462;2023-05-21T09:52:35;101959.97;;;20.22;57.12
48630;BME280;34426;52.180;4.462;2023-05-21T09:55:03;101956.13;;;20.50;57.38
48630;BME280;34426;52.180;4.462;2023-05-21T09:57:28;101958.66;;;20.71;55.31
48630;BME280;34426;52.180;4.462;2023-05-21T09:59:56;101962.22;;;20.95;54.84
48630;BME280;34426;52.180;4.462;2023-05-21T10:02:24;101963.81;;;21.01;55.30
48630;BME280;34426;52.180;4.462;2023-05-21T10:04:51;101959.16;;;21.24;54.15
48630;BME280;34426;52.180;4.462;2023-05-21T10:07:20;101962.66;;;21.02;52.60
48630;BME280;34426;52.180;4.462;2023-05-21T10:09:47;101965.66;;;21.11;52.84
48630;BME280;34426;52.180;4.462;2023-05-21T10:12:17;101954.47;;;21.14;52.96
48630;BME280;34426;52.180;4.462;2023-05-21T10:14:48;101958.31;;;21.23;53.51
48630;BME280;34426;52.180;4.462;2023-05-21T10:17:17;101950.28;;;21.25;53.51
48630;BME280;34426;52.180;4.462;2023-05-21T10:19:46;101952.09;;;21.21;54.01
48630;BME280;34426;52.180;4.462;2023-05-21T10:22:14;101952.53;;;21.42;53.14
48630;BME280;34426;52.180;4.462;2023-05-21T10:24:42;101943.00;;;21.19;53.50
48630;BME280;34426;52.180;4.462;2023-05-21T10:27:11;101942.31;;;21.41;53.04
48630;BME280;34426;52.180;4.462;2023-05-21T10:29:41;101934.94;;;21.40;51.52
48630;BME280;34426;52.180;4.462;2023-05-21T10:32:12;101933.69;;;21.46;53.30
48630;BME280;34426;52.180;4.462;2023-05-21T10:34:45;101934.63;;;21.42;54.43
48630;BME280;34426;52.180;4.462;2023-05-21T10:37:13;101921.66;;;21.36;54.94
48630;BME280;34426;52.180;4.462;2023-05-21T10:39:43;101932.34;;;21.11;55.81
48630;BME280;34426;52.180;4.462;2023-05-21T10:42:42;101928.84;;;20.68;58.40
48630;BME280;34426;52.180;4.462;2023-05-21T10:45:19;101931.72;;;20.49;59.21
48630;BME280;34426;52.180;4.462;2023-05-21T10:48:07;101933.78;;;20.44;57.77
48630;BME280;34426;52.180;4.462;2023-05-21T10:56:31;101939.41;;;20.81;57.66
48630;BME280;34426;52.180;4.462;2023-05-21T10:59:16;101924.16;;;20.58;58.91
48630;BME280;34426;52.180;4.462;2023-05-21T11:01:51;101925.31;;;20.57;59.79
48630;BME280;34426;52.180;4.462;2023-05-21T11:04:24;101921.25;;;20.64;60.42
48630;BME280;34426;52.180;4.462;2023-05-21T11:06:52;101916.19;;;20.61;59.27
48630;BME280;34426;52.180;4.462;2023-05-21T11:09:19;101918.78;;;20.76;58.30
48630;BME280;34426;52.180;4.462;2023-05-21T11:11:49;101917.25;;;20.65;57.81
48630;BME280;34426;52.180;4.462;2023-05-21T11:14:30;101907.81;;;20.83;57.57
48630;BME280;34426;52.180;4.462;2023-05-21T11:17:00;101915.31;;;20.79;58.11
48630;BME280;34426;52.180;4.462;2023-05-21T11:19:37;101909.47;;;20.70;57.05
48630;BME280;34426;52.180;4.462;2023-05-21T11:22:09;101905.50;;;20.85;58.94
48630;BME280;34426;52.180;4.462;2023-05-21T11:24:46;101892.06;;;21.04;57.75
48630;BME280;34426;52.180;4.462;2023-05-21T11:27:15;101898.19;;;21.11;56.40
48630;BME280;34426;52.180;4.462;2023-05-21T11:29:55;101909.00;;;21.42;57.43
48630;BME280;34426;52.180;4.462;2023-05-21T11:32:25;101903.91;;;21.66;56.82
48630;BME280;34426;52.180;4.462;2023-05-21T11:34:52;101898.66;;;21.46;57.87
48630;BME280;34426;52.180;4.462;2023-05-21T11:37:23;101884.13;;;21.61;55.73
48630;BME280;34426;52.180;4.462;2023-05-21T11:39:51;101894.03;;;21.50;53.85
48630;BME280;34426;52.180;4.462;2023-05-21T11:42:28;101894.38;;;21.02;57.22
48630;BME280;34426;52.180;4.462;2023-05-21T11:44:56;101880.75;;;21.32;55.79
48630;BME280;34426;52.180;4.462;2023-05-21T11:47:27;101878.41;;;21.34;55.22
48630;BME280;34426;52.180;4.462;2023-05-21T11:49:55;101883.03;;;21.71;55.01
48630;BME280;34426;52.180;4.462;2023-05-21T11:52:22;101877.53;;;22.02;56.60
48630;BME280;34426;52.180;4.462;2023-05-21T11:54:52;101872.72;;;21.61;54.89
48630;BME280;34426;52.180;4.462;2023-05-21T11:57:20;101871.66;;;21.30;54.19
48630;BME280;34426;52.180;4.462;2023-05-21T11:59:48;101865.34;;;21.46;54.57
48630;BME280;34426;52.180;4.462;2023-05-21T12:02:16;101870.41;;;21.36;57.78
48630;BME280;34426;52.180;4.462;2023-05-21T12:04:47;101858.59;;;21.29;55.53
48630;BME280;34426;52.180;4.462;2023-05-21T12:07:16;101874.81;;;21.28;55.19
48630;BME280;34426;52.180;4.462;2023-05-21T12:09:44;101862.16;;;21.20;55.16
48630;BME280;34426;52.180;4.462;2023-05-21T12:12:13;101858.78;;;21.18;58.29
48630;BME280;34426;52.180;4.462;2023-05-21T12:14:43;101855.66;;;21.47;56.54
48630;BME280;34426;52.180;4.462;2023-05-21T12:17:11;101858.25;;;21.71;55.64
48630;BME280;34426;52.180;4.462;2023-05-21T12:19:38;101858.44;;;21.88;54.67
48630;BME280;34426;52.180;4.462;2023-05-21T12:22:09;101853.47;;;22.08;54.66
48630;BME280;34426;52.180;4.462;2023-05-21T12:24:37;101850.75;;;22.25;54.11
48630;BME280;34426;52.180;4.462;2023-05-21T12:27:06;101850.84;;;21.70;53.00
48630;BME280;34426;52.180;4.462;2023-05-21T12:29:34;101858.25;;;22.21;53.48
48630;BME280;34426;52.180;4.462;2023-05-21T12:32:03;101850.88;;;22.42;52.57
48630;BME280;34426;52.180;4.462;2023-05-21T12:34:41;101852.16;;;22.58;52.79
48630;BME280;34426;52.180;4.462;2023-05-21T12:37:11;101841.81;;;22.85;51.80
48630;BME280;34426;52.180;4.462;2023-05-21T12:39:39;101851.19;;;23.16;48.90
48630;BME280;34426;52.180;4.462;2023-05-21T12:42:07;101844.44;;;23.12;49.15
48630;BME280;34426;52.180;4.462;2023-05-21T12:44:36;101847.00;;;23.22;50.01
48630;BME280;34426;52.180;4.462;2023-05-21T12:47:04;101851.22;;;23.65;48.91
48630;BME280;34426;52.180;4.462;2023-05-21T12:49:35;101843.00;;;23.80;47.64
48630;BME280;34426;52.180;4.462;2023-05-21T12:52:04;101847.22;;;24.00;47.63
48630;BME280;34426;52.180;4.462;2023-05-21T12:54:36;101850.09;;;24.26;46.05
48630;BME280;34426;52.180;4.462;2023-05-21T12:57:08;101838.00;;;24.20;46.63
48630;BME280;34426;52.180;4.462;2023-05-21T12:59:49;101852.75;;;23.79;48.30
48630;BME280;34426;52.180;4.462;2023-05-21T13:02:19;101851.56;;;23.72;47.35
48630;BME280;34426;52.180;4.462;2023-05-21T13:04:47;101845.91;;;24.24;46.21